createdAt,value
2018-11-04T00:01:21.915Z,20.33
2018-11-04T00:03:50.109Z,21.60
2018-11-04T00:06:18.317Z,20.17
2018-11-04T00:08:46.471Z,22.43
2018-11-04T00:11:14.729Z,18.80
2018-11-04T00:13:42.990Z,22.33
2018-11-04T00:16:11.188Z,19.80
2018-11-04T00:18:39.374Z,18.07
2018-11-04T00:21:07.645Z,17.67
2018-11-04T00:23:35.927Z,18.07
2018-11-04T00:26:04.253Z,19.10
2018-11-04T00:28:32.455Z,19.50
2018-11-04T00:31:00.717Z,20.90
2018-11-04T00:33:28.913Z,19.43
2018-11-04T00:35:57.125Z,19.67
2018-11-04T00:38:25.343Z,17.23
2018-11-04T00:40:53.555Z,21.60
2018-11-04T00:43:21.730Z,20.07
2018-11-04T00:45:50.018Z,22.80
2018-11-04T00:48:18.315Z,18.27
2018-11-04T00:50:46.521Z,18.27
2018-11-04T00:53:14.696Z,17.57
2018-11-04T00:55:47.805Z,21.17
2018-11-04T00:58:16.060Z,20.13
2018-11-04T01:00:44.244Z,16.73
2018-11-04T01:03:12.443Z,20.87
2018-11-04T01:05:40.683Z,21.07
2018-11-04T01:08:09.005Z,20.90
2018-11-04T01:10:37.190Z,18.20
2018-11-04T01:13:05.504Z,20.33
2018-11-04T01:15:33.829Z,22.80
2018-11-04T01:18:02.009Z,19.00
2018-11-04T01:20:30.290Z,20.50
2018-11-04T01:22:58.568Z,21.53
2018-11-04T01:25:26.845Z,16.63
2018-11-04T01:27:55.114Z,19.37
2018-11-04T01:30:23.415Z,21.33
2018-11-04T01:32:51.569Z,19.83
2018-11-04T01:35:19.901Z,19.77
2018-11-04T01:37:48.113Z,18.40
2018-11-04T01:40:16.402Z,19.57
2018-11-04T01:42:44.734Z,20.00
2018-11-04T01:45:12.973Z,18.07
2018-11-04T01:47:41.207Z,22.33
2018-11-04T01:50:11.812Z,19.77
2018-11-04T01:52:40.029Z,19.37
2018-11-04T01:55:08.974Z,16.50
2018-11-04T01:57:37.305Z,21.50
2018-11-04T02:00:10.135Z,20.43
2018-11-04T02:02:38.530Z,19.37
2018-11-04T02:05:07.402Z,20.83
2018-11-04T02:07:35.679Z,20.60
2018-11-04T02:10:03.976Z,20.33
2018-11-04T02:12:32.187Z,20.57
2018-11-04T02:15:00.409Z,18.27
2018-11-04T02:17:28.686Z,19.97
2018-11-04T02:19:56.908Z,18.90
2018-11-04T02:22:25.165Z,20.27
2018-11-04T02:24:53.418Z,17.87
2018-11-04T02:27:21.662Z,23.13
2018-11-04T02:29:49.920Z,20.53
2018-11-04T02:32:18.202Z,19.33
2018-11-04T02:34:46.481Z,19.27
2018-11-04T02:37:14.740Z,18.50
2018-11-04T02:39:43.037Z,20.47
2018-11-04T02:42:11.367Z,19.20
2018-11-04T02:44:39.642Z,22.03
2018-11-04T02:47:07.937Z,19.87
2018-11-04T02:49:36.225Z,18.27
2018-11-04T02:52:04.706Z,22.23
2018-11-04T02:54:32.932Z,18.77
2018-11-04T02:57:01.161Z,21.37
2018-11-04T02:59:29.383Z,19.70
2018-11-04T03:01:57.758Z,21.27
2018-11-04T03:04:25.868Z,19.13
2018-11-04T03:06:54.129Z,21.67
2018-11-04T03:09:22.310Z,19.87
2018-11-04T03:11:50.501Z,24.07
2018-11-04T03:14:18.786Z,20.47
2018-11-04T03:16:47.061Z,22.70
2018-11-04T03:19:15.337Z,19.47
2018-11-04T03:21:43.614Z,21.47
2018-11-04T03:24:11.871Z,20.73
2018-11-04T03:26:40.166Z,20.83
2018-11-04T03:29:08.440Z,20.93
2018-11-04T03:31:36.721Z,19.80
2018-11-04T03:34:05.097Z,22.83
2018-11-04T03:36:33.357Z,21.77
2018-11-04T03:39:01.627Z,21.73
2018-11-04T03:41:29.820Z,24.37
2018-11-04T03:43:58.098Z,20.60
2018-11-04T03:46:26.375Z,20.70
2018-11-04T03:48:54.617Z,20.97
2018-11-04T03:51:22.932Z,22.13
2018-11-04T03:53:51.151Z,21.33
2018-11-04T03:56:19.390Z,23.90
2018-11-04T03:58:47.638Z,22.67
2018-11-04T04:01:15.933Z,26.00
2018-11-04T04:03:44.192Z,27.27
2018-11-04T04:06:12.466Z,25.03
2018-11-04T04:08:40.761Z,24.03
2018-11-04T04:11:09.009Z,27.63
2018-11-04T04:13:37.313Z,22.40
2018-11-04T04:16:05.599Z,26.83
2018-11-04T04:18:33.921Z,24.47
2018-11-04T04:21:07.606Z,24.87
2018-11-04T04:23:36.467Z,26.43
2018-11-04T04:26:05.238Z,23.67
2018-11-04T04:28:33.550Z,25.33
2018-11-04T04:31:01.970Z,27.20
2018-11-04T04:33:30.352Z,24.70
2018-11-04T04:35:58.669Z,23.23
2018-11-04T04:38:26.961Z,23.53
2018-11-04T04:40:55.211Z,21.47
2018-11-04T04:43:23.486Z,24.17
2018-11-04T04:45:52.248Z,24.17
2018-11-04T04:48:20.530Z,26.57
2018-11-04T04:50:48.716Z,25.50
2018-11-04T04:53:16.904Z,25.53
2018-11-04T04:55:45.129Z,24.37
2018-11-04T04:58:13.341Z,23.43
2018-11-04T05:00:41.529Z,25.27
2018-11-04T05:03:09.724Z,21.63
2018-11-04T05:05:37.915Z,22.83
2018-11-04T05:08:06.121Z,20.43
2018-11-04T05:10:34.313Z,25.30
2018-11-04T05:13:02.624Z,24.83
2018-11-04T05:15:31.518Z,24.40
2018-11-04T05:17:59.734Z,21.10
2018-11-04T05:20:27.931Z,25.20
2018-11-04T05:22:56.117Z,21.70
2018-11-04T05:25:24.389Z,23.17
2018-11-04T05:27:52.645Z,23.90
2018-11-04T05:30:20.926Z,24.97
2018-11-04T05:32:49.213Z,23.23
2018-11-04T05:35:17.487Z,20.93
2018-11-04T05:37:45.765Z,21.30
2018-11-04T05:40:14.044Z,24.17
2018-11-04T05:42:42.243Z,23.70
2018-11-04T05:45:10.480Z,22.87
2018-11-04T05:47:38.765Z,24.30
2018-11-04T05:50:07.242Z,23.13
2018-11-04T05:52:35.731Z,24.80
2018-11-04T05:55:03.997Z,27.13
2018-11-04T05:57:32.270Z,25.23
2018-11-04T06:00:00.545Z,26.00
2018-11-04T06:02:28.840Z,25.17
2018-11-04T06:04:57.097Z,27.83
2018-11-04T06:07:25.301Z,28.20
2018-11-04T06:09:53.481Z,26.40
2018-11-04T06:12:21.737Z,28.97
2018-11-04T06:14:50.012Z,30.73
2018-11-04T06:17:18.201Z,28.30
2018-11-04T06:19:46.361Z,30.00
2018-11-04T06:22:14.613Z,28.93
2018-11-04T06:24:42.809Z,29.33
2018-11-04T06:27:11.006Z,28.17
2018-11-04T06:29:39.181Z,29.53
2018-11-04T06:32:07.364Z,27.73
2018-11-04T06:34:35.622Z,27.10
2018-11-04T06:37:03.760Z,24.70
2018-11-04T06:39:31.955Z,27.60
2018-11-04T06:42:00.126Z,24.90
2018-11-04T06:44:28.325Z,25.77
2018-11-04T06:46:56.593Z,24.93
2018-11-04T06:49:24.805Z,26.07
2018-11-04T06:51:52.997Z,26.60
2018-11-04T06:54:21.161Z,23.77
2018-11-04T06:56:49.351Z,24.23
2018-11-04T06:59:17.549Z,23.27
2018-11-04T07:01:45.728Z,24.97
2018-11-04T07:04:18.582Z,23.37
2018-11-04T07:06:46.894Z,23.97
2018-11-04T07:09:15.648Z,25.60
2018-11-04T07:11:44.169Z,27.43
2018-11-04T07:14:12.385Z,24.87
2018-11-04T07:16:40.706Z,24.43
2018-11-04T07:19:08.958Z,25.03
2018-11-04T07:21:37.141Z,27.90
2018-11-04T07:24:05.924Z,24.87
2018-11-04T07:26:34.300Z,26.80
2018-11-04T07:29:02.524Z,25.77
2018-11-04T07:31:30.696Z,28.00
2018-11-04T07:36:33.636Z,25.17
2018-11-04T07:39:01.849Z,30.07
2018-11-04T07:41:30.034Z,28.63
2018-11-04T07:43:58.258Z,27.50
2018-11-04T07:46:26.432Z,28.73
2018-11-04T07:48:54.632Z,29.03
2018-11-04T07:51:22.848Z,29.90
2018-11-04T07:53:50.993Z,29.27
2018-11-04T07:56:19.196Z,29.53
2018-11-04T07:58:47.400Z,29.83
2018-11-04T08:01:15.603Z,30.97
2018-11-04T08:03:43.807Z,26.83
2018-11-04T08:06:12.017Z,29.10
2018-11-04T08:08:40.210Z,26.40
2018-11-04T08:11:08.397Z,29.03
2018-11-04T08:13:36.649Z,29.70
2018-11-04T08:16:04.881Z,33.43
2018-11-04T08:18:33.119Z,29.10
2018-11-04T08:21:01.336Z,27.20
2018-11-04T08:23:29.614Z,32.27
2018-11-04T08:25:57.819Z,33.80
2018-11-04T08:28:26.031Z,30.70
2018-11-04T08:30:54.264Z,29.67
2018-11-04T08:33:22.480Z,40.43
2018-11-04T08:35:50.673Z,33.90
2018-11-04T08:38:18.872Z,30.87
2018-11-04T08:40:47.065Z,32.10
2018-11-04T08:43:15.276Z,30.50
2018-11-04T08:45:43.567Z,29.60
2018-11-04T08:48:11.686Z,27.10
2018-11-04T08:50:39.884Z,28.53
2018-11-04T08:53:08.076Z,30.03
2018-11-04T08:55:36.353Z,27.97
2018-11-04T08:58:04.629Z,29.63
2018-11-04T09:00:32.832Z,29.07
2018-11-04T09:03:01.045Z,29.00
2018-11-04T09:05:29.286Z,28.03
2018-11-04T09:07:57.493Z,29.67
2018-11-04T09:10:25.672Z,32.33
2018-11-04T09:12:53.880Z,30.43
2018-11-04T09:15:22.101Z,30.17
2018-11-04T09:17:50.316Z,32.27
2018-11-04T09:20:18.526Z,29.20
2018-11-04T09:22:46.737Z,32.77
2018-11-04T09:25:14.979Z,28.67
2018-11-04T09:27:43.168Z,29.03
2018-11-04T09:30:13.369Z,31.43
2018-11-04T09:32:41.633Z,28.53
2018-11-04T09:35:16.432Z,28.10
2018-11-04T09:37:44.632Z,25.47
2018-11-04T09:40:13.482Z,25.93
2018-11-04T09:42:41.708Z,25.67
2018-11-04T09:45:10.494Z,26.30
2018-11-04T09:47:39.074Z,26.27
2018-11-04T09:50:08.957Z,28.27
2018-11-04T09:52:37.065Z,27.57
2018-11-04T09:55:06.033Z,30.63
2018-11-04T09:57:34.222Z,27.33
2018-11-04T10:00:02.456Z,27.07
2018-11-04T10:02:30.650Z,29.43
2018-11-04T10:04:58.864Z,28.37
2018-11-04T10:07:27.162Z,28.73
2018-11-04T10:09:55.391Z,30.77
2018-11-04T10:12:23.591Z,31.20
2018-11-04T10:14:51.805Z,31.60
2018-11-04T10:17:19.993Z,30.97
2018-11-04T10:19:48.430Z,28.67
2018-11-04T10:22:16.389Z,30.83
2018-11-04T10:24:44.602Z,32.00
2018-11-04T10:27:12.781Z,30.17
2018-11-04T10:29:41.030Z,31.13
2018-11-04T10:32:09.209Z,29.67
2018-11-04T10:34:37.426Z,36.83
2018-11-04T10:37:05.918Z,33.30
2018-11-04T10:39:34.130Z,35.53
2018-11-04T10:42:02.317Z,32.53
2018-11-04T10:44:30.581Z,33.50
2018-11-04T10:46:58.770Z,34.80
2018-11-04T10:49:27.115Z,32.23
2018-11-04T10:51:55.215Z,36.70
2018-11-04T10:54:23.440Z,35.90
2018-11-04T10:56:51.648Z,44.33
2018-11-04T10:59:19.961Z,38.93
2018-11-04T11:01:48.188Z,34.37
2018-11-04T11:04:16.376Z,32.40
2018-11-04T11:06:44.578Z,29.37
2018-11-04T11:09:12.780Z,29.37
2018-11-04T11:11:41.347Z,62.63
2018-11-04T11:14:09.714Z,41.33
2018-11-04T11:16:38.005Z,34.17
2018-11-04T11:19:06.228Z,42.87
2018-11-04T11:21:34.449Z,37.13
2018-11-04T11:24:02.680Z,37.87
2018-11-04T11:26:30.901Z,33.83
2018-11-04T11:28:59.086Z,40.37
2018-11-04T11:31:27.311Z,29.57
2018-11-04T11:33:55.505Z,33.37
2018-11-04T11:36:23.688Z,29.70
2018-11-04T11:38:51.867Z,31.93
2018-11-04T11:41:20.132Z,30.10
2018-11-04T11:43:48.448Z,33.00
2018-11-04T11:46:16.674Z,31.60
2018-11-04T11:48:44.901Z,30.47
2018-11-04T11:51:13.110Z,31.23
2018-11-04T11:53:41.338Z,29.37
2018-11-04T11:56:09.621Z,33.10
2018-11-04T11:58:37.877Z,31.37
2018-11-04T12:01:06.120Z,33.93
2018-11-04T12:03:34.345Z,29.53
2018-11-04T12:06:02.569Z,34.93
2018-11-04T12:08:30.801Z,34.53
2018-11-04T12:10:59.013Z,29.97
2018-11-04T12:13:27.277Z,28.47
2018-11-04T12:15:55.464Z,30.30
2018-11-04T12:18:23.691Z,32.97
2018-11-04T12:20:51.968Z,28.80
2018-11-04T12:23:20.158Z,31.40
2018-11-04T12:25:48.399Z,30.53
2018-11-04T12:28:16.609Z,31.87
2018-11-04T12:30:44.869Z,32.00
2018-11-04T12:33:13.109Z,32.90
2018-11-04T12:35:41.321Z,30.77
2018-11-04T12:38:09.602Z,32.93
2018-11-04T12:40:37.870Z,34.90
2018-11-04T12:43:06.077Z,32.40
2018-11-04T12:45:34.364Z,33.57
2018-11-04T12:48:02.533Z,31.10
2018-11-04T12:50:30.771Z,34.63
2018-11-04T12:52:59.001Z,30.73
2018-11-04T12:55:27.209Z,31.70
2018-11-04T12:57:55.456Z,32.70
2018-11-04T13:00:23.689Z,31.70
2018-11-04T13:02:51.931Z,32.03
2018-11-04T13:05:20.286Z,31.77
2018-11-04T13:07:48.569Z,32.10
2018-11-04T13:10:16.862Z,30.40
2018-11-04T13:12:45.084Z,29.90
2018-11-04T13:15:14.344Z,30.93
2018-11-04T13:17:42.934Z,30.33
2018-11-04T13:20:11.221Z,29.73
2018-11-04T13:22:39.858Z,30.90
2018-11-04T13:25:08.641Z,33.20
2018-11-04T13:27:36.898Z,30.37
2018-11-04T13:30:07.013Z,31.43
2018-11-04T13:32:35.241Z,32.27
2018-11-04T13:35:03.472Z,29.43
2018-11-04T13:37:31.690Z,27.70
2018-11-04T13:39:59.889Z,27.43
2018-11-04T13:42:28.116Z,30.03
2018-11-04T13:44:56.316Z,31.70
2018-11-04T13:47:24.616Z,27.57
2018-11-04T13:49:52.801Z,26.17
2018-11-04T13:52:21.041Z,27.70
2018-11-04T13:54:49.271Z,27.33
2018-11-04T13:57:17.521Z,27.07
2018-11-04T13:59:45.714Z,25.77
2018-11-04T14:02:13.923Z,27.33
2018-11-04T14:04:42.125Z,26.70
2018-11-04T14:07:10.416Z,24.43
2018-11-04T14:09:38.693Z,24.17
2018-11-04T14:12:07.047Z,25.83
2018-11-04T14:14:35.265Z,25.17
2018-11-04T14:17:03.632Z,27.13
2018-11-04T14:19:31.808Z,25.43
2018-11-04T14:22:00.053Z,23.13
2018-11-04T14:24:28.240Z,23.67
2018-11-04T14:26:56.585Z,27.80
2018-11-04T14:29:24.844Z,24.30
2018-11-04T14:31:53.085Z,23.47
2018-11-04T14:34:21.336Z,22.97
2018-11-04T14:36:49.543Z,22.07
2018-11-04T14:39:17.793Z,24.60
2018-11-04T14:41:46.043Z,23.90
2018-11-04T14:44:14.261Z,26.30
2018-11-04T14:46:42.541Z,23.07
2018-11-04T14:49:10.713Z,23.03
2018-11-04T14:51:39.269Z,22.67
2018-11-04T14:54:07.538Z,24.27
2018-11-04T14:56:35.817Z,25.47
2018-11-04T14:59:04.092Z,23.83
2018-11-04T15:01:32.342Z,23.30
2018-11-04T15:04:00.543Z,26.00
2018-11-04T15:06:28.838Z,22.73
2018-11-04T15:08:57.095Z,25.53
2018-11-04T15:11:25.313Z,25.83
2018-11-04T15:13:53.560Z,25.73
2018-11-04T15:16:21.865Z,28.83
2018-11-04T15:18:50.222Z,28.27
2018-11-04T15:21:18.369Z,32.53
2018-11-04T15:23:46.593Z,31.83
2018-11-04T15:26:14.929Z,34.10
2018-11-04T15:28:43.096Z,30.97
2018-11-04T15:31:11.293Z,31.50
2018-11-04T15:33:39.563Z,32.53
2018-11-04T15:36:08.193Z,35.63
2018-11-04T15:38:36.442Z,30.17
2018-11-04T15:41:04.704Z,33.33
2018-11-04T15:43:32.912Z,29.03
2018-11-04T15:46:01.182Z,32.33
2018-11-04T15:48:29.565Z,30.17
2018-11-04T15:50:57.841Z,32.90
2018-11-04T15:53:26.116Z,30.33
2018-11-04T15:55:54.392Z,29.00
2018-11-04T15:58:22.582Z,29.33
2018-11-04T16:00:50.953Z,30.03
2018-11-04T16:03:19.224Z,31.20
2018-11-04T16:05:47.471Z,30.43
2018-11-04T16:08:15.777Z,31.87
2018-11-04T16:10:44.055Z,30.80
2018-11-04T16:13:12.328Z,27.17
2018-11-04T16:15:40.605Z,28.63
2018-11-04T16:18:09.126Z,30.77
2018-11-04T16:20:37.227Z,31.10
2018-11-04T16:23:05.644Z,31.17
2018-11-04T16:25:34.003Z,31.17
2018-11-04T16:28:02.305Z,31.27
2018-11-04T16:30:30.673Z,30.50
2018-11-04T16:32:58.956Z,31.90
2018-11-04T16:35:27.242Z,34.57
2018-11-04T16:37:55.572Z,34.70
2018-11-04T16:40:23.689Z,32.93
2018-11-04T16:42:51.956Z,34.20
2018-11-04T16:45:20.279Z,37.87
2018-11-04T16:47:48.514Z,35.47
2018-11-04T16:50:16.823Z,34.10
2018-11-04T16:52:45.525Z,34.40
2018-11-04T16:55:14.117Z,33.83
2018-11-04T16:57:42.816Z,33.47
2018-11-04T17:00:11.681Z,32.70
2018-11-04T17:02:39.913Z,32.40
2018-11-04T17:05:08.861Z,35.17
2018-11-04T17:07:37.101Z,34.23
2018-11-04T17:10:06.325Z,36.30
2018-11-04T17:12:34.531Z,35.30
2018-11-04T17:15:02.801Z,32.10
2018-11-04T17:17:31.000Z,35.10
2018-11-04T17:19:59.272Z,32.73
2018-11-04T17:22:27.449Z,32.43
2018-11-04T17:24:55.647Z,36.50
2018-11-04T17:27:23.925Z,34.40
2018-11-04T17:29:52.128Z,33.83
2018-11-04T17:32:20.339Z,33.47
2018-11-04T17:34:48.625Z,31.40
2018-11-04T17:37:16.866Z,34.67
2018-11-04T17:39:45.179Z,28.73
2018-11-04T17:42:13.389Z,30.90
2018-11-04T17:44:41.800Z,31.37
2018-11-04T17:47:12.939Z,30.90
2018-11-04T17:49:41.432Z,31.33
2018-11-04T17:52:09.622Z,30.30
2018-11-04T17:54:38.724Z,28.83
2018-11-04T17:57:06.952Z,30.67
2018-11-04T17:59:35.230Z,30.00
2018-11-04T18:02:03.457Z,32.10
2018-11-04T18:04:31.737Z,31.70
2018-11-04T18:06:59.964Z,31.10
2018-11-04T18:09:28.180Z,30.00
2018-11-04T18:11:56.428Z,30.70
2018-11-04T18:14:24.743Z,30.97
2018-11-04T18:16:52.978Z,31.60
2018-11-04T18:19:21.158Z,30.93
2018-11-04T18:21:49.381Z,30.77
2018-11-04T18:24:17.713Z,30.43
2018-11-04T18:26:46.056Z,30.57
2018-11-04T18:29:14.228Z,29.03
2018-11-04T18:31:42.450Z,28.07
2018-11-04T18:34:10.757Z,28.53
2018-11-04T18:36:39.036Z,27.73
2018-11-04T18:39:08.080Z,28.67
2018-11-04T18:41:36.734Z,26.97
2018-11-04T18:44:05.043Z,25.23
2018-11-04T18:46:33.186Z,27.93
2018-11-04T18:49:01.403Z,26.83
2018-11-04T18:51:29.621Z,29.43
2018-11-04T18:53:57.952Z,28.33
2018-11-04T18:56:26.213Z,28.43
2018-11-04T18:58:54.843Z,26.93
2018-11-04T19:01:23.114Z,27.60
2018-11-04T19:03:51.514Z,30.07
2018-11-04T19:06:19.752Z,27.53
2018-11-04T19:08:47.936Z,27.03
2018-11-04T19:11:16.355Z,23.60
2018-11-04T19:13:44.472Z,22.73
2018-11-04T19:16:12.762Z,22.10
2018-11-04T19:18:41.026Z,26.17
2018-11-04T19:21:09.224Z,24.93
2018-11-04T19:23:37.510Z,22.97
2018-11-04T19:26:06.038Z,22.57
2018-11-04T19:28:34.292Z,22.27
2018-11-04T19:31:02.523Z,22.57
2018-11-04T19:33:30.754Z,23.13
2018-11-04T19:35:58.964Z,25.40
2018-11-04T19:38:27.159Z,23.80
2018-11-04T19:40:55.366Z,23.87
2018-11-04T19:43:23.535Z,24.90
2018-11-04T19:45:51.869Z,23.87
2018-11-04T19:48:20.077Z,25.47
2018-11-04T19:50:48.274Z,23.93
2018-11-04T19:53:16.476Z,23.67
2018-11-04T19:55:44.671Z,24.13
2018-11-04T19:58:12.945Z,22.27
2018-11-04T20:00:41.170Z,21.83
2018-11-04T20:03:09.421Z,23.63
2018-11-04T20:05:37.636Z,22.67
2018-11-04T20:08:06.133Z,24.57
2018-11-04T20:10:34.386Z,25.03
2018-11-04T20:13:08.037Z,24.67
2018-11-04T20:15:36.301Z,26.17
2018-11-04T20:18:10.005Z,22.63
2018-11-04T20:20:38.197Z,25.37
2018-11-04T20:23:06.400Z,23.43
2018-11-04T20:25:39.991Z,23.37
2018-11-04T20:28:08.129Z,23.53
2018-11-04T20:30:36.382Z,22.13
2018-11-04T20:33:06.305Z,25.83
2018-11-04T20:35:34.517Z,24.00
2018-11-04T20:38:02.764Z,25.63
2018-11-04T20:40:36.448Z,23.70
2018-11-04T20:43:04.749Z,22.97
2018-11-04T20:45:32.944Z,26.30
2018-11-04T20:49:06.121Z,24.80
2018-11-04T20:51:34.322Z,23.90
2018-11-04T20:54:02.545Z,25.87
2018-11-04T20:56:36.312Z,23.53
2018-11-04T20:59:04.625Z,25.53
2018-11-04T21:01:32.819Z,29.73
2018-11-04T21:04:01.212Z,26.77
2018-11-04T21:06:29.504Z,23.33
2018-11-04T21:08:57.813Z,23.17
2018-11-04T21:11:26.002Z,31.60
2018-11-04T21:13:55.035Z,26.10
2018-11-04T21:16:23.366Z,25.50
2018-11-04T21:18:51.445Z,24.53
2018-11-04T21:21:19.620Z,25.27
2018-11-04T21:23:47.825Z,24.40
2018-11-04T21:26:16.673Z,21.87
2018-11-04T21:28:44.979Z,24.33
2018-11-04T21:31:13.248Z,23.80
2018-11-04T21:33:41.373Z,26.03
2018-11-04T21:36:09.626Z,23.67
2018-11-04T21:38:37.782Z,22.17
2018-11-04T21:41:05.984Z,23.90
2018-11-04T21:43:34.556Z,22.37
2018-11-04T21:46:02.491Z,24.63
2018-11-04T21:48:30.701Z,24.10
2018-11-04T21:50:59.064Z,24.00
2018-11-04T21:53:27.262Z,22.93
2018-11-04T21:55:55.578Z,23.40
2018-11-04T21:58:23.867Z,24.37
2018-11-04T22:00:52.083Z,23.70
2018-11-04T22:03:20.526Z,25.80
2018-11-04T22:05:48.529Z,26.83
2018-11-04T22:08:16.719Z,23.57
2018-11-04T22:10:44.985Z,25.63
2018-11-04T22:13:13.133Z,23.67
2018-11-04T22:15:41.895Z,23.27
2018-11-04T22:18:10.080Z,23.47
2018-11-04T22:20:38.307Z,23.27
2018-11-04T22:23:06.528Z,23.07
2018-11-04T22:25:34.775Z,24.47
2018-11-04T22:28:02.982Z,24.63
2018-11-04T22:30:31.195Z,22.87
2018-11-04T22:32:59.417Z,23.27
2018-11-04T22:35:27.682Z,24.90
2018-11-04T22:37:55.917Z,23.77
2018-11-04T22:40:24.107Z,22.80
2018-11-04T22:42:52.304Z,23.90
2018-11-04T22:45:20.488Z,22.60
2018-11-04T22:47:48.740Z,24.73
2018-11-04T22:50:17.018Z,24.53
2018-11-04T22:52:45.253Z,24.93
2018-11-04T22:55:14.469Z,24.00
2018-11-04T22:57:43.332Z,26.03
2018-11-04T23:00:17.218Z,23.60
2018-11-04T23:02:46.263Z,26.60
2018-11-04T23:05:19.969Z,25.00
2018-11-04T23:07:48.184Z,24.60
2018-11-04T23:10:16.472Z,25.83
2018-11-04T23:12:44.682Z,28.13
2018-11-04T23:15:12.877Z,25.43
2018-11-04T23:17:41.074Z,26.27
2018-11-04T23:20:09.272Z,26.20
2018-11-04T23:22:37.740Z,24.57
2018-11-04T23:25:07.207Z,25.83
2018-11-04T23:27:35.390Z,24.27
2018-11-04T23:30:05.045Z,27.90
2018-11-04T23:32:33.297Z,25.77
2018-11-04T23:35:01.487Z,28.67
2018-11-04T23:37:29.675Z,27.60
2018-11-04T23:39:57.934Z,26.50
2018-11-04T23:42:26.322Z,25.83
2018-11-04T23:44:54.525Z,26.13
2018-11-04T23:47:22.725Z,26.37
2018-11-04T23:49:50.963Z,25.30
2018-11-04T23:52:19.198Z,25.83
2018-11-04T23:54:47.412Z,26.97
2018-11-04T23:57:15.600Z,24.50
2018-11-04T23:59:43.825Z,26.40
